createdAt,value
2018-09-06T00:01:53.145Z,11.00
2018-09-06T00:04:21.673Z,11.47
2018-09-06T00:06:50.207Z,10.47
2018-09-06T00:09:18.963Z,13.03
2018-09-06T00:11:47.479Z,10.00
2018-09-06T00:14:16.015Z,11.60
2018-09-06T00:16:44.559Z,10.50
2018-09-06T00:19:13.068Z,11.33
2018-09-06T00:21:41.604Z,11.87
2018-09-06T00:24:10.134Z,10.60
2018-09-06T00:26:38.713Z,12.67
2018-09-06T00:29:07.213Z,11.00
2018-09-06T00:31:35.738Z,11.07
2018-09-06T00:34:04.514Z,11.00
2018-09-06T00:36:33.054Z,10.70
2018-09-06T00:39:01.552Z,11.33
2018-09-06T00:41:32.416Z,11.50
2018-09-06T00:44:01.114Z,11.23
2018-09-06T00:46:29.704Z,11.67
2018-09-06T00:48:58.260Z,11.20
2018-09-06T00:51:27.383Z,11.27
2018-09-06T00:53:56.202Z,11.80
2018-09-06T00:56:24.815Z,11.53
2018-09-06T00:58:53.333Z,11.23
2018-09-06T01:01:22.116Z,12.00
2018-09-06T01:03:50.642Z,10.87
2018-09-06T01:06:19.151Z,11.53
2018-09-06T01:08:47.641Z,9.70
2018-09-06T01:11:16.197Z,12.00
2018-09-06T01:13:44.712Z,11.10
2018-09-06T01:16:13.231Z,10.73
2018-09-06T01:18:41.762Z,10.87
2018-09-06T01:21:10.293Z,12.33
2018-09-06T01:23:38.808Z,11.00
2018-09-06T01:26:07.582Z,11.40
2018-09-06T01:28:36.154Z,10.03
2018-09-06T01:31:04.656Z,10.43
2018-09-06T01:33:33.822Z,11.63
2018-09-06T01:36:07.826Z,12.03
2018-09-06T01:38:36.383Z,10.60
2018-09-06T01:41:04.948Z,11.57
2018-09-06T01:43:33.479Z,11.00
2018-09-06T01:46:02.026Z,12.00
2018-09-06T01:48:31.043Z,11.67
2018-09-06T01:50:59.590Z,12.67
2018-09-06T01:53:28.874Z,12.00
2018-09-06T01:55:57.815Z,13.10
2018-09-06T01:58:26.387Z,13.77
2018-09-06T02:00:54.886Z,13.07
2018-09-06T02:03:23.399Z,12.70
2018-09-06T02:05:51.945Z,12.57
2018-09-06T02:08:20.717Z,10.43
2018-09-06T02:10:49.265Z,12.60
2018-09-06T02:13:17.807Z,12.83
2018-09-06T02:15:46.284Z,13.40
2018-09-06T02:18:14.857Z,13.60
2018-09-06T02:20:43.343Z,12.70
2018-09-06T02:23:11.876Z,12.77
2018-09-06T02:25:40.410Z,13.20
2018-09-06T02:28:09.019Z,13.43
2018-09-06T02:30:37.527Z,13.37
2018-09-06T02:33:06.050Z,13.60
2018-09-06T02:35:34.657Z,15.10
2018-09-06T02:38:03.150Z,14.10
2018-09-06T02:40:37.040Z,14.97
2018-09-06T02:43:06.086Z,13.10
2018-09-06T02:45:34.620Z,12.90
2018-09-06T02:48:03.123Z,10.90
2018-09-06T02:50:37.001Z,11.10
2018-09-06T02:53:05.555Z,11.40
2018-09-06T02:55:34.099Z,12.00
2018-09-06T02:58:02.630Z,12.40
2018-09-06T03:00:33.736Z,13.47
2018-09-06T03:03:02.282Z,12.93
2018-09-06T03:05:30.816Z,13.83
2018-09-06T03:08:00.347Z,14.97
2018-09-06T03:10:46.915Z,14.60
2018-09-06T03:13:15.454Z,13.90
2018-09-06T03:15:43.948Z,13.53
2018-09-06T03:18:12.434Z,14.07
2018-09-06T03:20:40.972Z,13.97
2018-09-06T03:23:09.465Z,13.90
2018-09-06T03:25:37.965Z,13.17
2018-09-06T03:28:06.436Z,13.87
2018-09-06T03:30:34.950Z,13.33
2018-09-06T03:33:03.619Z,13.63
2018-09-06T03:35:32.439Z,13.77
2018-09-06T03:38:01.009Z,13.77
2018-09-06T03:40:29.589Z,13.77
2018-09-06T03:42:58.113Z,12.10
2018-09-06T03:45:26.666Z,13.10
2018-09-06T03:47:55.155Z,13.10
2018-09-06T03:50:23.654Z,13.63
2018-09-06T03:52:52.184Z,13.13
2018-09-06T03:55:20.910Z,13.10
2018-09-06T03:57:49.871Z,13.60
2018-09-06T04:00:18.412Z,15.33
2018-09-06T04:02:46.905Z,15.70
2018-09-06T04:05:15.504Z,14.53
2018-09-06T04:07:43.993Z,15.93
2018-09-06T04:10:12.550Z,15.17
2018-09-06T04:12:41.517Z,15.57
2018-09-06T04:15:10.038Z,16.27
2018-09-06T04:17:39.147Z,16.50
2018-09-06T04:20:07.688Z,16.10
2018-09-06T04:22:40.633Z,15.83
2018-09-06T04:25:09.107Z,16.00
2018-09-06T04:27:37.768Z,15.17
2018-09-06T04:30:06.318Z,16.90
2018-09-06T04:32:34.827Z,16.73
2018-09-06T04:35:03.519Z,14.67
2018-09-06T04:37:32.394Z,15.60
2018-09-06T04:40:00.900Z,15.10
2018-09-06T04:42:29.455Z,16.17
2018-09-06T04:44:58.035Z,16.47
2018-09-06T04:47:26.970Z,14.33
2018-09-06T04:49:55.494Z,14.70
2018-09-06T04:52:24.384Z,15.07
2018-09-06T04:54:53.312Z,15.30
2018-09-06T04:57:21.787Z,15.20
2018-09-06T04:59:51.195Z,15.73
2018-09-06T05:02:19.672Z,15.20
2018-09-06T05:04:48.205Z,14.70
2018-09-06T05:07:16.730Z,15.67
2018-09-06T05:09:45.426Z,16.40
2018-09-06T05:12:13.903Z,14.67
2018-09-06T05:14:42.419Z,15.40
2018-09-06T05:17:11.571Z,15.03
2018-09-06T05:19:40.211Z,16.37
2018-09-06T05:22:08.933Z,15.60
2018-09-06T05:24:37.395Z,17.20
2018-09-06T05:27:05.902Z,16.53
2018-09-06T05:29:34.446Z,15.40
2018-09-06T05:32:03.028Z,18.23
2018-09-06T05:34:32.507Z,15.90
2018-09-06T05:37:01.144Z,16.60
2018-09-06T05:39:30.182Z,17.47
2018-09-06T05:41:58.675Z,16.87
2018-09-06T05:44:27.593Z,17.30
2018-09-06T05:46:56.852Z,15.50
2018-09-06T05:49:25.393Z,17.37
2018-09-06T05:51:54.635Z,18.10
2018-09-06T05:54:23.173Z,17.53
2018-09-06T05:56:51.672Z,17.70
2018-09-06T05:59:20.183Z,18.20
2018-09-06T06:01:48.712Z,17.00
2018-09-06T06:04:17.249Z,17.37
2018-09-06T06:06:45.732Z,19.90
2018-09-06T06:09:14.286Z,17.60
2018-09-06T06:11:43.514Z,18.60
2018-09-06T06:14:12.079Z,18.40
2018-09-06T06:16:40.632Z,17.63
2018-09-06T06:19:09.162Z,18.77
2018-09-06T06:21:37.710Z,18.87
2018-09-06T06:24:06.687Z,18.10
2018-09-06T06:26:35.778Z,18.60
2018-09-06T06:29:04.337Z,18.43
2018-09-06T06:31:32.831Z,18.10
2018-09-06T06:34:01.492Z,19.53
2018-09-06T06:36:29.951Z,20.47
2018-09-06T06:38:58.506Z,19.37
2018-09-06T06:41:27.004Z,20.07
2018-09-06T06:43:55.583Z,20.23
2018-09-06T06:46:24.056Z,18.10
2018-09-06T06:48:52.542Z,20.43
2018-09-06T06:51:21.949Z,18.93
2018-09-06T06:53:50.700Z,19.93
2018-09-06T06:56:19.225Z,20.50
2018-09-06T06:58:47.795Z,18.87
2018-09-06T07:01:16.632Z,20.50
2018-09-06T07:03:45.986Z,19.90
2018-09-06T07:06:14.467Z,18.90
2018-09-06T07:08:42.990Z,20.10
2018-09-06T07:11:11.519Z,19.37
2018-09-06T07:13:40.043Z,19.30
2018-09-06T07:16:08.562Z,18.07
2018-09-06T07:18:37.415Z,19.53
2018-09-06T07:21:06.337Z,20.53
2018-09-06T07:23:38.354Z,19.50
2018-09-06T07:26:06.914Z,20.77
2018-09-06T07:28:35.426Z,18.93
2018-09-06T07:31:04.710Z,18.20
2018-09-06T07:33:33.437Z,18.47
2018-09-06T07:36:01.951Z,17.97
2018-09-06T07:38:30.490Z,18.07
2018-09-06T07:40:58.958Z,19.10
2018-09-06T07:43:27.733Z,16.57
2018-09-06T07:45:56.204Z,16.83
2018-09-06T07:48:24.700Z,16.60
2018-09-06T07:50:53.230Z,16.37
2018-09-06T07:53:21.720Z,17.70
2018-09-06T07:55:50.258Z,17.13
2018-09-06T07:58:18.817Z,15.70
2018-09-06T08:00:47.352Z,14.83
2018-09-06T08:03:16.207Z,15.40
2018-09-06T08:05:44.859Z,17.20
2018-09-06T08:08:13.570Z,14.10
2018-09-06T08:10:42.172Z,13.53
2018-09-06T08:13:10.934Z,14.27
2018-09-06T08:15:39.502Z,14.33
2018-09-06T08:18:08.018Z,13.37
2018-09-06T08:20:36.562Z,13.90
2018-09-06T08:23:05.160Z,12.33
2018-09-06T08:25:33.782Z,12.27
2018-09-06T08:28:02.271Z,11.87
2018-09-06T08:30:30.816Z,13.23
2018-09-06T08:32:59.310Z,12.83
2018-09-06T08:35:28.811Z,12.60
2018-09-06T08:37:57.911Z,12.17
2018-09-06T08:40:26.435Z,13.30
2018-09-06T08:42:54.947Z,12.70
2018-09-06T08:45:23.526Z,12.70
2018-09-06T08:47:52.007Z,12.60
2018-09-06T08:50:20.897Z,12.10
2018-09-06T08:52:49.436Z,12.47
2018-09-06T08:55:17.921Z,11.83
2018-09-06T08:57:46.480Z,12.53
2018-09-06T09:00:15.681Z,10.87
2018-09-06T09:02:44.552Z,12.10
2018-09-06T09:05:13.072Z,13.53
2018-09-06T09:07:41.680Z,14.03
2018-09-06T09:10:10.200Z,12.07
2018-09-06T09:12:39.003Z,10.83
2018-09-06T09:15:07.790Z,11.60
2018-09-06T09:17:36.308Z,10.47
2018-09-06T09:20:04.879Z,12.10
2018-09-06T09:22:33.621Z,10.77
2018-09-06T09:25:02.420Z,11.10
2018-09-06T09:27:31.000Z,10.43
2018-09-06T09:29:59.571Z,11.20
2018-09-06T09:32:28.305Z,10.70
2018-09-06T09:34:56.889Z,9.30
2018-09-06T09:37:25.482Z,10.97
2018-09-06T09:39:54.067Z,10.40
2018-09-06T09:42:22.571Z,10.57
2018-09-06T09:44:51.206Z,9.90
2018-09-06T09:49:50.842Z,10.63
2018-09-06T09:54:47.226Z,9.60
2018-09-06T09:57:15.858Z,8.30
2018-09-06T09:59:45.404Z,8.57
2018-09-06T10:02:19.125Z,9.00
2018-09-06T10:04:52.966Z,9.00
2018-09-06T10:07:26.952Z,10.63
2018-09-06T10:09:56.325Z,8.83
2018-09-06T10:12:24.968Z,9.13
2018-09-06T10:14:53.553Z,8.90
2018-09-06T10:17:22.125Z,9.27
2018-09-06T10:19:50.746Z,9.00
2018-09-06T10:22:19.317Z,10.20
2018-09-06T10:24:47.878Z,8.33
2018-09-06T10:27:17.109Z,7.80
2018-09-06T10:29:45.796Z,8.33
2018-09-06T10:32:14.633Z,8.73
2018-09-06T10:34:43.401Z,9.60
2018-09-06T10:37:12.902Z,9.97
2018-09-06T10:39:41.734Z,9.10
2018-09-06T10:42:11.770Z,8.70
2018-09-06T10:44:42.283Z,9.30
2018-09-06T10:47:10.779Z,9.00
2018-09-06T10:49:39.386Z,8.13
2018-09-06T10:52:07.905Z,8.63
2018-09-06T10:54:37.065Z,9.27
2018-09-06T10:57:06.752Z,8.53
2018-09-06T10:59:35.424Z,8.70
2018-09-06T11:02:04.038Z,10.23
2018-09-06T11:04:33.396Z,9.17
2018-09-06T11:07:01.978Z,9.20
2018-09-06T11:09:30.654Z,8.80
2018-09-06T11:11:59.316Z,9.23
2018-09-06T11:14:27.866Z,8.67
2018-09-06T11:16:57.402Z,8.00
2018-09-06T11:19:26.156Z,9.10
2018-09-06T11:21:54.934Z,9.37
2018-09-06T11:24:23.512Z,8.87
2018-09-06T11:26:52.674Z,9.70
2018-09-06T11:32:24.121Z,9.13
2018-09-06T11:34:53.061Z,9.00
2018-09-06T11:37:21.691Z,8.70
2018-09-06T11:39:52.319Z,9.70
2018-09-06T11:42:21.582Z,9.00
2018-09-06T11:44:50.435Z,9.40
2018-09-06T11:47:19.149Z,9.90
2018-09-06T11:49:47.738Z,9.57
2018-09-06T11:52:16.363Z,9.87
2018-09-06T11:54:47.377Z,10.90
2018-09-06T11:57:16.254Z,8.10
2018-09-06T11:59:45.719Z,9.70
2018-09-06T12:02:15.405Z,10.40
2018-09-06T12:04:44.513Z,8.97
2018-09-06T12:07:13.380Z,9.57
2018-09-06T12:09:41.991Z,9.10
2018-09-06T12:12:10.676Z,8.60
2018-09-06T12:14:39.276Z,9.70
2018-09-06T12:17:08.329Z,10.10
2018-09-06T12:19:39.097Z,10.20
2018-09-06T12:22:07.603Z,10.27
2018-09-06T12:24:36.148Z,9.30
2018-09-06T12:27:05.059Z,9.40
2018-09-06T12:29:33.653Z,8.70
2018-09-06T12:32:02.385Z,9.17
2018-09-06T12:34:31.113Z,10.27
2018-09-06T12:36:59.675Z,9.53
2018-09-06T12:39:28.239Z,9.07
2018-09-06T12:41:56.904Z,10.00
2018-09-06T12:44:26.207Z,10.07
2018-09-06T12:46:54.806Z,9.50
2018-09-06T12:49:23.391Z,8.33
2018-09-06T12:51:51.973Z,9.10
2018-09-06T12:54:20.629Z,8.70
2018-09-06T12:56:49.176Z,8.90
2018-09-06T12:59:18.025Z,8.90
2018-09-06T13:01:46.620Z,9.07
2018-09-06T13:04:15.240Z,10.37
2018-09-06T13:06:43.900Z,9.80
2018-09-06T13:09:13.233Z,8.77
2018-09-06T13:11:42.246Z,8.73
2018-09-06T13:14:10.855Z,9.63
2018-09-06T13:16:40.171Z,9.30
2018-09-06T13:19:08.906Z,9.37
2018-09-06T13:21:37.563Z,9.50
2018-09-06T13:24:18.298Z,9.27
2018-09-06T13:26:48.683Z,8.90
2018-09-06T13:29:17.254Z,8.70
2018-09-06T13:31:46.117Z,9.57
2018-09-06T13:34:14.707Z,9.70
2018-09-06T13:36:44.024Z,10.73
2018-09-06T13:39:14.356Z,9.40
2018-09-06T13:41:45.818Z,10.43
2018-09-06T13:44:14.671Z,9.67
2018-09-06T13:46:43.263Z,10.67
2018-09-06T13:49:11.832Z,10.30
2018-09-06T13:51:40.383Z,9.33
2018-09-06T13:54:09.004Z,10.00
2018-09-06T13:56:39.853Z,9.47
2018-09-06T13:59:14.963Z,10.30
2018-09-06T14:01:44.837Z,9.43
2018-09-06T14:04:13.364Z,9.23
2018-09-06T14:06:41.891Z,9.53
2018-09-06T14:09:10.555Z,9.73
2018-09-06T14:11:39.126Z,8.90
2018-09-06T14:14:07.758Z,9.90
2018-09-06T14:16:36.401Z,10.90
2018-09-06T14:19:04.964Z,10.50
2018-09-06T14:21:33.527Z,10.13
2018-09-06T14:24:02.396Z,10.57
2018-09-06T14:26:31.128Z,9.73
2018-09-06T14:28:59.691Z,9.67
2018-09-06T14:31:28.416Z,9.37
2018-09-06T14:33:57.597Z,10.97
2018-09-06T14:36:26.185Z,9.73
2018-09-06T14:38:54.907Z,9.10
2018-09-06T14:41:23.579Z,10.90
2018-09-06T14:43:52.198Z,9.80
2018-09-06T14:46:20.824Z,9.60
2018-09-06T14:48:49.371Z,10.20
2018-09-06T14:51:18.120Z,9.23
2018-09-06T14:53:48.044Z,10.57
2018-09-06T14:56:16.715Z,10.90
2018-09-06T14:58:45.243Z,9.57
2018-09-06T15:01:14.084Z,10.13
2018-09-06T15:03:42.951Z,9.87
2018-09-06T15:06:11.784Z,9.80
2018-09-06T15:08:40.543Z,10.73
2018-09-06T15:11:09.248Z,10.67
2018-09-06T15:13:37.840Z,10.37
2018-09-06T15:16:06.672Z,10.13
2018-09-06T15:18:36.257Z,10.20
2018-09-06T15:21:05.047Z,9.73
2018-09-06T15:23:33.822Z,9.97
2018-09-06T15:26:02.399Z,9.73
2018-09-06T15:28:30.960Z,10.60
2018-09-06T15:30:59.717Z,10.17
2018-09-06T15:33:28.461Z,10.73
2018-09-06T15:35:57.254Z,9.57
2018-09-06T15:38:25.823Z,11.17
2018-09-06T15:40:54.762Z,10.43
2018-09-06T15:43:23.267Z,9.53
2018-09-06T15:45:52.093Z,9.00
2018-09-06T15:48:20.723Z,10.70
2018-09-06T15:50:49.307Z,10.37
2018-09-06T15:53:18.155Z,9.57
2018-09-06T15:55:47.902Z,11.17
2018-09-06T15:58:16.694Z,10.43
2018-09-06T16:00:45.406Z,10.97
2018-09-06T16:03:14.404Z,9.80
2018-09-06T16:05:43.261Z,11.27
2018-09-06T16:08:11.948Z,9.60
2018-09-06T16:10:41.532Z,9.50
2018-09-06T16:13:11.282Z,10.60
2018-09-06T16:15:40.717Z,9.80
2018-09-06T16:18:09.282Z,10.67
2018-09-06T16:20:38.764Z,10.80
2018-09-06T16:23:07.615Z,9.50
2018-09-06T16:25:36.176Z,11.30
2018-09-06T16:28:05.012Z,10.30
2018-09-06T16:30:33.684Z,10.43
2018-09-06T16:33:02.386Z,10.73
2018-09-06T16:35:30.953Z,9.33
2018-09-06T16:37:59.594Z,10.13
2018-09-06T16:40:28.144Z,10.23
2018-09-06T16:42:57.114Z,9.13
2018-09-06T16:45:26.065Z,10.30
2018-09-06T16:47:54.980Z,9.30
2018-09-06T16:50:23.961Z,10.60
2018-09-06T16:52:52.765Z,10.07
2018-09-06T16:55:21.408Z,8.83
2018-09-06T16:57:50.059Z,9.30
2018-09-06T17:00:18.637Z,10.27
2018-09-06T17:02:47.272Z,10.77
2018-09-06T17:05:15.843Z,10.43
2018-09-06T17:07:44.467Z,10.30
2018-09-06T17:10:13.148Z,8.70
2018-09-06T17:12:41.749Z,9.40
2018-09-06T17:15:10.443Z,10.17
2018-09-06T17:17:39.351Z,9.03
2018-09-06T17:20:08.207Z,9.53
2018-09-06T17:22:36.907Z,8.93
2018-09-06T17:25:18.393Z,9.60
2018-09-06T17:27:50.909Z,9.17
2018-09-06T17:30:21.500Z,9.77
2018-09-06T17:32:50.232Z,8.73
2018-09-06T17:35:19.518Z,9.10
2018-09-06T17:37:48.237Z,8.80
2018-09-06T17:40:17.014Z,8.50
2018-09-06T17:42:54.425Z,8.67
2018-09-06T17:45:26.354Z,8.40
2018-09-06T17:47:56.826Z,10.13
2018-09-06T17:50:44.878Z,10.50
2018-09-06T17:53:14.953Z,9.50
2018-09-06T17:55:43.652Z,9.37
2018-09-06T17:58:12.199Z,9.13
2018-09-06T18:00:45.926Z,10.30
2018-09-06T18:03:15.498Z,10.23
2018-09-06T18:05:44.118Z,9.33
2018-09-06T18:08:12.719Z,8.13
2018-09-06T18:10:41.361Z,8.53
2018-09-06T18:13:10.060Z,7.90
2018-09-06T18:15:42.340Z,8.70
2018-09-06T18:18:11.000Z,8.90
2018-09-06T18:20:47.688Z,9.17
2018-09-06T18:23:21.202Z,9.67
2018-09-06T18:25:49.916Z,10.13
2018-09-06T18:28:20.473Z,11.07
2018-09-06T18:30:59.643Z,9.87
2018-09-06T18:33:29.534Z,9.10
2018-09-06T18:36:20.719Z,9.47
2018-09-06T18:38:49.858Z,9.77
2018-09-06T18:41:19.373Z,9.43
2018-09-06T18:44:02.710Z,9.13
2018-09-06T18:49:59.033Z,10.40
2018-09-06T18:52:34.194Z,9.67
2018-09-06T18:55:03.773Z,9.80
2018-09-06T18:57:33.436Z,10.13
2018-09-06T19:00:02.304Z,8.20
2018-09-06T19:02:31.763Z,8.70
2018-09-06T19:05:00.491Z,10.17
2018-09-06T19:07:30.884Z,8.97
2018-09-06T19:10:00.073Z,8.30
2018-09-06T19:12:32.888Z,9.33
2018-09-06T19:15:01.570Z,8.77
2018-09-06T19:17:31.396Z,8.87
2018-09-06T19:20:20.644Z,8.87
2018-09-06T19:22:51.854Z,9.50
2018-09-06T19:25:23.657Z,9.20
2018-09-06T19:27:55.148Z,8.07
2018-09-06T19:30:24.942Z,10.10
2018-09-06T19:32:55.063Z,9.43
2018-09-06T19:35:25.993Z,10.47
2018-09-06T19:51:58.035Z,8.87
2018-09-06T19:54:53.646Z,8.20
2018-09-06T19:57:23.354Z,8.17
2018-09-06T19:59:55.653Z,7.70
2018-09-06T20:02:25.307Z,7.13
2018-09-06T20:04:58.832Z,7.80
2018-09-06T20:07:31.050Z,9.40
2018-09-06T20:10:00.350Z,9.07
2018-09-06T20:12:29.098Z,9.30
2018-09-06T20:15:04.473Z,9.10
2018-09-06T20:17:33.434Z,9.50
2018-09-06T20:20:02.010Z,8.47
2018-09-06T20:22:30.900Z,9.63
2018-09-06T20:25:00.383Z,8.57
2018-09-06T20:27:30.009Z,8.80
2018-09-06T20:29:58.712Z,9.00
2018-09-06T20:32:27.812Z,7.70
2018-09-06T20:34:56.448Z,9.37
2018-09-06T20:37:25.088Z,7.77
2018-09-06T20:39:53.874Z,9.00
2018-09-06T20:42:22.666Z,8.33
2018-09-06T20:44:51.931Z,7.73
2018-09-06T20:47:20.534Z,8.33
2018-09-06T20:49:49.175Z,8.67
2018-09-06T20:52:17.903Z,8.00
2018-09-06T20:54:46.472Z,9.93
2018-09-06T20:57:15.038Z,9.80
2018-09-06T20:59:43.626Z,9.50
2018-09-06T21:02:18.125Z,9.57
2018-09-06T21:04:48.010Z,9.30
2018-09-06T21:07:16.777Z,10.10
2018-09-06T21:09:45.675Z,9.47
2018-09-06T21:12:14.268Z,10.00
2018-09-06T21:14:43.044Z,8.33
2018-09-06T21:17:11.650Z,10.10
2018-09-06T21:19:40.843Z,9.87
2018-09-06T21:22:09.540Z,10.10
2018-09-06T21:24:39.134Z,9.30
2018-09-06T21:27:07.843Z,8.90
2018-09-06T21:29:36.414Z,9.60
2018-09-06T21:32:05.467Z,9.20
2018-09-06T21:34:34.277Z,9.13
2018-09-06T21:37:02.818Z,9.30
2018-09-06T21:39:31.453Z,9.97
2018-09-06T21:41:59.972Z,9.30
2018-09-06T21:44:28.595Z,9.40
2018-09-06T21:46:57.115Z,9.53
2018-09-06T21:49:25.724Z,10.60
2018-09-06T21:51:54.562Z,10.50
2018-09-06T21:54:23.197Z,10.27
2018-09-06T21:56:51.744Z,10.60
2018-09-06T21:59:20.391Z,10.10
2018-09-06T22:01:50.853Z,9.80
2018-09-06T22:04:19.701Z,9.67
2018-09-06T22:06:48.267Z,10.17
2018-09-06T22:09:16.851Z,10.40
2018-09-06T22:11:45.583Z,11.17
2018-09-06T22:14:14.151Z,11.03
2018-09-06T22:16:42.695Z,11.17
2018-09-06T22:19:11.246Z,10.90
2018-09-06T22:21:39.882Z,10.30
2018-09-06T22:24:08.484Z,10.87
2018-09-06T22:26:37.247Z,11.50
2018-09-06T22:29:05.984Z,11.87
2018-09-06T22:31:34.587Z,12.27
2018-09-06T22:34:04.795Z,11.33
2018-09-06T22:36:33.327Z,11.40
2018-09-06T22:39:01.873Z,11.37
2018-09-06T22:41:30.398Z,13.67
2018-09-06T22:43:58.914Z,12.20
2018-09-06T22:46:33.074Z,12.50
2018-09-06T22:49:01.746Z,13.67
2018-09-06T22:51:30.162Z,12.60
2018-09-06T22:53:58.726Z,10.97
2018-09-06T22:56:27.214Z,13.20
2018-09-06T22:58:55.780Z,12.80
2018-09-06T23:01:24.637Z,13.53
2018-09-06T23:03:54.078Z,12.90
2018-09-06T23:06:23.376Z,13.17
2018-09-06T23:08:51.922Z,12.53
2018-09-06T23:11:20.458Z,13.20
2018-09-06T23:13:49.069Z,12.90
2018-09-06T23:16:17.640Z,13.07
2018-09-06T23:18:46.251Z,14.07
2018-09-06T23:21:14.797Z,13.43
2018-09-06T23:23:44.354Z,13.80
2018-09-06T23:26:12.876Z,13.00
2018-09-06T23:28:42.014Z,13.93
2018-09-06T23:31:10.511Z,14.53
2018-09-06T23:33:39.282Z,12.40
2018-09-06T23:36:07.871Z,13.67
2018-09-06T23:38:37.983Z,13.70
2018-09-06T23:41:06.551Z,13.73
2018-09-06T23:43:35.208Z,14.70
2018-09-06T23:46:03.857Z,11.70
2018-09-06T23:48:32.414Z,12.83
2018-09-06T23:51:01.508Z,12.43
2018-09-06T23:53:30.039Z,12.30
2018-09-06T23:55:58.540Z,14.00
2018-09-06T23:58:27.079Z,13.50
